Time;durP1;ratioP1;P1;durP2;ratioP2;P2;SDS_P1;SDS_P2;PMS_P1;PMS_P2;Temp;Humidity;BMP_temperature;BMP_pressure;BME280_temperature;BME280_humidity;BME280_pressure;Samples;Min_cycle;Max_cycle;Signal;HPM_P1;HPM_P2
2020/12/06 00:01:23;;;;;;;35.47;23.77;;;;;;;-0.18;100.00;99935.44;5047787;28;20468;-82
2020/12/06 00:03:49;;;;;;;33.47;24.02;;;;;;;-0.15;100.00;99923.81;5036634;28;20060;-82
2020/12/06 00:06:18;;;;;;;30.60;23.05;;;;;;;-0.14;100.00;99928.16;5046971;28;20033;-82
2020/12/06 00:08:44;;;;;;;29.98;21.85;;;;;;;-0.16;100.00;99932.69;5036422;28;20116;-82
2020/12/06 00:11:09;;;;;;;32.50;23.52;;;;;;;-0.17;100.00;99915.16;5036889;28;20123;-83
2020/12/06 00:13:34;;;;;;;32.22;23.15;;;;;;;-0.10;100.00;99921.69;5036043;28;20110;-82
2020/12/06 00:16:00;;;;;;;30.88;23.40;;;;;;;-0.10;100.00;99916.41;5029672;28;20037;-83
2020/12/06 00:18:25;;;;;;;30.90;22.50;;;;;;;-0.07;100.00;99917.00;5045858;28;20049;-81
2020/12/06 00:20:51;;;;;;;30.02;22.85;;;;;;;-0.03;100.00;99910.53;5046971;28;20044;-83
2020/12/06 00:23:20;;;;;;;29.42;21.73;;;;;;;-0.03;100.00;99902.63;5044281;28;20048;-83
2020/12/06 00:25:49;;;;;;;31.00;21.35;;;;;;;-0.09;100.00;99896.97;5044781;28;20041;-82
2020/12/06 00:28:14;;;;;;;33.53;23.83;;;;;;;-0.06;100.00;99899.38;5055501;28;20551;-83
2020/12/06 00:30:40;;;;;;;33.15;23.30;;;;;;;0.04;100.00;99895.06;5020784;28;20087;-82
2020/12/06 00:33:05;;;;;;;33.63;22.33;;;;;;;0.07;100.00;99896.63;5036294;28;20030;-82
2020/12/06 00:35:31;;;;;;;32.03;22.42;;;;;;;0.06;100.00;99887.03;5024145;28;20128;-82
2020/12/06 00:37:56;;;;;;;28.58;21.42;;;;;;;0.09;100.00;99878.91;5031736;28;20396;-82
2020/12/06 00:40:21;;;;;;;28.92;21.48;;;;;;;0.06;100.00;99877.34;5031440;28;20041;-82
2020/12/06 00:42:47;;;;;;;29.63;21.60;;;;;;;0.05;100.00;99861.63;5038651;28;20128;-82
2020/12/06 00:45:12;;;;;;;33.80;23.20;;;;;;;-0.01;100.00;99841.81;5030698;28;20510;-83
2020/12/06 00:47:38;;;;;;;34.20;24.58;;;;;;;0.00;100.00;99846.16;5037578;28;20037;-82
2020/12/06 00:50:05;;;;;;;34.30;24.10;;;;;;;-0.04;100.00;99845.53;5037228;28;20041;-82
2020/12/06 00:52:31;;;;;;;34.67;23.85;;;;;;;-0.08;100.00;99857.31;5037159;28;20513;-82
2020/12/06 00:54:56;;;;;;;33.30;22.63;;;;;;;-0.21;100.00;99856.56;5038136;28;20037;-82
2020/12/06 00:57:22;;;;;;;34.38;25.10;;;;;;;-0.16;100.00;99849.13;5041898;28;20052;-82
2020/12/06 00:59:47;;;;;;;32.92;23.90;;;;;;;-0.14;100.00;99857.78;5048515;28;20364;-82
2020/12/06 01:02:13;;;;;;;35.45;24.92;;;;;;;-0.12;100.00;99860.28;5047945;28;20119;-82
2020/12/06 01:04:38;;;;;;;32.35;24.55;;;;;;;-0.14;100.00;99862.22;5037871;28;20045;-82
2020/12/06 01:07:04;;;;;;;35.80;24.27;;;;;;;-0.13;100.00;99864.72;5047170;28;20041;-82
2020/12/06 01:09:29;;;;;;;33.88;24.27;;;;;;;-0.13;100.00;99854.19;5049105;28;20056;-82
2020/12/06 01:11:55;;;;;;;34.55;23.73;;;;;;;-0.14;100.00;99856.94;5047841;28;20116;-82
2020/12/06 01:14:20;;;;;;;38.30;26.00;;;;;;;-0.11;100.00;99851.44;5046236;28;20045;-82
2020/12/06 01:16:50;;;;;;;37.72;24.30;;;;;;;-0.13;100.00;99838.34;5010363;28;20037;-82
2020/12/06 01:19:19;;;;;;;36.28;25.25;;;;;;;-0.20;100.00;99834.53;5061224;28;20048;-83
2020/12/06 01:21:49;;;;;;;35.42;22.85;;;;;;;-0.32;100.00;99844.19;5044350;28;20037;-82
2020/12/06 01:24:14;;;;;;;36.17;24.15;;;;;;;-0.39;100.00;99843.00;5048486;28;20649;-82
2020/12/06 01:26:40;;;;;;;33.85;23.75;;;;;;;-0.35;100.00;99857.63;5039560;28;20128;-82
2020/12/06 01:29:06;;;;;;;34.35;24.65;;;;;;;-0.29;100.00;99864.22;5039422;28;20042;-82
2020/12/06 01:31:31;;;;;;;35.97;26.33;;;;;;;-0.27;100.00;99872.84;5030136;28;20030;-81
2020/12/06 01:33:57;;;;;;;35.92;24.63;;;;;;;-0.30;100.00;99868.66;5035525;28;20037;-82
2020/12/06 01:36:22;;;;;;;37.55;25.40;;;;;;;-0.31;100.00;99868.78;5040327;28;20037;-82
2020/12/06 01:38:47;;;;;;;42.25;27.77;;;;;;;-0.33;100.00;99858.34;5029153;28;20056;-81
2020/12/06 01:41:18;;;;;;;41.42;28.10;;;;;;;-0.27;100.00;99862.31;5031307;28;20052;-81
2020/12/06 01:43:55;;;;;;;38.28;26.55;;;;;;;-0.20;100.00;99852.13;5030097;28;20483;-81
2020/12/06 01:46:21;;;;;;;37.15;26.20;;;;;;;-0.14;100.00;99841.97;5031178;28;20047;-82
2020/12/06 01:48:47;;;;;;;43.22;30.13;;;;;;;-0.04;100.00;99836.78;5044437;28;20059;-82
2020/12/06 01:51:15;;;;;;;39.47;27.90;;;;;;;-0.02;100.00;99845.44;5040272;28;20479;-82
2020/12/06 01:53:40;;;;;;;40.47;26.85;;;;;;;-0.04;100.00;99849.97;5047851;28;20430;-81
2020/12/06 01:56:06;;;;;;;41.22;28.65;;;;;;;0.05;100.00;99851.91;5042553;28;20040;-81
2020/12/06 01:58:31;;;;;;;42.55;27.77;;;;;;;-0.02;100.00;99846.28;5033934;28;20045;-82
2020/12/06 02:00:57;;;;;;;41.45;26.45;;;;;;;0.01;100.00;99834.66;5059789;28;20046;-81
2020/12/06 02:03:22;;;;;;;41.85;28.25;;;;;;;0.11;100.00;99817.13;5037319;28;20117;-82
2020/12/06 02:05:47;;;;;;;42.20;28.25;;;;;;;0.17;100.00;99807.88;5059299;28;20048;-82
2020/12/06 02:08:13;;;;;;;43.13;27.25;;;;;;;0.16;100.00;99807.03;5040193;28;20037;-81
2020/12/06 02:10:38;;;;;;;39.47;27.13;;;;;;;0.11;100.00;99798.66;5033007;28;20042;-81
2020/12/06 02:13:04;;;;;;;42.38;26.75;;;;;;;0.11;100.00;99788.09;5036645;28;20498;-82
2020/12/06 02:15:29;;;;;;;40.65;28.17;;;;;;;0.19;100.00;99788.31;5034454;28;20391;-81
2020/12/06 02:17:54;;;;;;;36.95;24.80;;;;;;;0.18;100.00;99796.38;5034261;28;20051;-81
2020/12/06 02:20:20;;;;;;;40.42;26.75;;;;;;;0.16;100.00;99799.13;5044000;28;20045;-82
2020/12/06 02:22:46;;;;;;;36.25;24.88;;;;;;;0.19;100.00;99811.25;5047312;28;20364;-81
2020/12/06 02:25:11;;;;;;;36.47;26.42;;;;;;;0.10;100.00;99812.81;5030271;28;20777;-82
2020/12/06 02:27:37;;;;;;;37.33;25.10;;;;;;;0.10;100.00;99804.91;5041270;28;20499;-82
2020/12/06 02:30:04;;;;;;;42.25;27.30;;;;;;;0.11;100.00;99824.19;5043430;28;20037;-82
2020/12/06 02:32:29;;;;;;;40.58;25.90;;;;;;;0.06;100.00;99835.13;5029616;28;20065;-82
2020/12/06 02:34:55;;;;;;;37.08;26.52;;;;;;;0.09;100.00;99840.16;5045212;28;20144;-81
2020/12/06 02:37:20;;;;;;;40.50;27.05;;;;;;;0.12;100.00;99847.84;5050082;28;20064;-82
2020/12/06 02:39:45;;;;;;;40.97;26.95;;;;;;;0.10;100.00;99870.03;5048077;28;20132;-83
2020/12/06 02:42:11;;;;;;;39.83;26.70;;;;;;;0.06;100.00;99873.84;5064279;28;20037;-83
2020/12/06 02:44:36;;;;;;;38.42;26.92;;;;;;;0.06;100.00;99868.56;5044519;28;20041;-81
2020/12/06 02:47:02;;;;;;;43.33;28.60;;;;;;;0.01;100.00;99873.38;5062776;28;20044;-83
2020/12/06 02:49:27;;;;;;;45.15;28.33;;;;;;;0.00;100.00;99883.09;5047886;28;20386;-83
2020/12/06 02:51:53;;;;;;;43.10;28.05;;;;;;;0.03;100.00;99889.91;5029863;28;20042;-82
2020/12/06 02:54:18;;;;;;;44.03;29.45;;;;;;;0.07;100.00;99879.00;5049822;28;20037;-82
2020/12/06 02:56:44;;;;;;;44.50;28.50;;;;;;;0.11;100.00;99892.78;5048018;28;20033;-81
2020/12/06 02:59:09;;;;;;;44.78;28.73;;;;;;;0.12;100.00;99873.38;5065090;28;20041;-83
2020/12/06 03:01:35;;;;;;;44.20;29.42;;;;;;;0.18;100.00;99875.53;5047864;28;20523;-82
2020/12/06 03:04:00;;;;;;;46.50;30.25;;;;;;;0.22;100.00;99875.16;5049587;28;20041;-82
2020/12/06 03:06:26;;;;;;;48.03;30.52;;;;;;;0.24;100.00;99864.50;5029852;28;20496;-82
2020/12/06 03:08:52;;;;;;;50.65;29.85;;;;;;;0.26;100.00;99859.09;5048156;28;20120;-82
2020/12/06 03:11:17;;;;;;;44.75;29.80;;;;;;;0.27;100.00;99850.22;5052543;28;20119;-82
2020/12/06 03:13:43;;;;;;;46.60;29.90;;;;;;;0.24;100.00;99845.19;5034463;28;20410;-82
2020/12/06 03:16:08;;;;;;;44.80;30.30;;;;;;;0.29;100.00;99861.47;5051294;28;20040;-82
2020/12/06 03:18:34;;;;;;;46.40;29.92;;;;;;;0.30;100.00;99855.25;5049128;28;20040;-82
2020/12/06 03:21:01;;;;;;;47.28;30.80;;;;;;;0.29;100.00;99846.50;5066214;28;20145;-82
2020/12/06 03:23:27;;;;;;;51.22;31.20;;;;;;;0.31;100.00;99852.47;5050693;28;20037;-82
2020/12/06 03:25:52;;;;;;;49.70;30.17;;;;;;;0.27;100.00;99860.78;5051119;28;20040;-83
2020/12/06 03:28:18;;;;;;;49.17;31.58;;;;;;;0.27;100.00;99874.81;5065332;28;20045;-83
2020/12/06 03:30:44;;;;;;;51.97;32.05;;;;;;;0.30;100.00;99881.66;5046666;28;20064;-82
2020/12/06 03:33:09;;;;;;;52.80;33.03;;;;;;;0.28;100.00;99867.72;5050306;28;20092;-81
2020/12/06 03:35:36;;;;;;;51.70;32.85;;;;;;;0.29;100.00;99870.25;5044675;28;20055;-81
2020/12/06 03:38:01;;;;;;;56.20;33.22;;;;;;;0.34;100.00;99873.34;5050024;28;20103;-82
2020/12/06 03:40:27;;;;;;;52.55;32.58;;;;;;;0.37;100.00;99872.28;5050908;28;20041;-81
2020/12/06 03:42:53;;;;;;;52.03;32.42;;;;;;;0.40;100.00;99861.47;5052172;28;20553;-82
2020/12/06 03:45:20;;;;;;;56.08;33.13;;;;;;;0.41;100.00;99852.59;5032248;28;20437;-82
2020/12/06 03:47:47;;;;;;;53.90;33.03;;;;;;;0.43;100.00;99856.81;5049704;28;20391;-81
2020/12/06 03:50:13;;;;;;;55.25;34.22;;;;;;;0.45;100.00;99860.16;5050821;28;20055;-82
2020/12/06 03:52:39;;;;;;;55.80;34.83;;;;;;;0.47;100.00;99860.03;5066085;28;20143;-82
2020/12/06 03:55:05;;;;;;;55.20;35.10;;;;;;;0.48;100.00;99859.06;5050001;28;20128;-82
2020/12/06 03:57:30;;;;;;;53.55;34.78;;;;;;;0.49;100.00;99865.19;5045382;28;20044;-82
2020/12/06 03:59:56;;;;;;;55.80;34.08;;;;;;;0.49;100.00;99865.19;5044542;28;20113;-82
2020/12/06 04:02:21;;;;;;;58.92;35.42;;;;;;;0.49;100.00;99860.75;5044615;28;20040;-82
2020/12/06 04:04:46;;;;;;;58.08;32.40;;;;;;;0.49;100.00;99862.53;5043799;28;20486;-81
2020/12/06 04:07:12;;;;;;;55.15;32.35;;;;;;;0.52;100.00;99879.00;5048934;28;20037;-83
2020/12/06 04:09:37;;;;;;;56.10;34.28;;;;;;;0.53;100.00;99883.31;5057552;28;20098;-83
2020/12/06 04:12:04;;;;;;;59.42;33.28;;;;;;;0.42;100.00;99884.16;5042139;28;20033;-83
2020/12/06 04:14:29;;;;;;;55.33;34.60;;;;;;;0.50;100.00;99883.56;5048279;28;20036;-82
2020/12/06 04:16:55;;;;;;;53.25;32.72;;;;;;;0.54;100.00;99889.41;5065108;28;20048;-82
2020/12/06 04:19:20;;;;;;;58.83;33.72;;;;;;;0.57;100.00;99881.25;5047486;28;20045;-83
2020/12/06 04:21:45;;;;;;;54.58;32.28;;;;;;;0.58;100.00;99875.03;5050850;28;20061;-82
2020/12/06 04:24:13;;;;;;;57.72;33.55;;;;;;;0.59;100.00;99872.25;5052445;28;20095;-82
2020/12/06 04:26:39;;;;;;;60.53;35.60;;;;;;;0.60;100.00;99852.78;5047125;28;20071;-82
2020/12/06 04:29:05;;;;;;;55.70;33.30;;;;;;;0.61;100.00;99856.28;5048870;28;20104;-82
2020/12/06 04:31:31;;;;;;;58.67;35.30;;;;;;;0.63;100.00;99857.84;5042270;28;20530;-82
2020/12/06 04:33:56;;;;;;;58.92;32.58;;;;;;;0.61;100.00;99859.78;5049056;28;20432;-82
2020/12/06 04:36:21;;;;;;;55.75;32.45;;;;;;;0.60;100.00;99850.16;5026063;28;20090;-82
2020/12/06 04:38:50;;;;;;;60.92;33.90;;;;;;;0.62;100.00;99837.69;5047121;28;20056;-82
2020/12/06 04:41:16;;;;;;;59.13;33.50;;;;;;;0.64;100.00;99833.13;5060080;28;20094;-82
2020/12/06 04:43:43;;;;;;;60.75;34.47;;;;;;;0.60;100.00;99826.38;5070696;28;20045;-82
2020/12/06 04:46:09;;;;;;;55.45;33.10;;;;;;;0.65;100.00;99824.22;5038115;28;20106;-82
2020/12/06 04:49:05;;;;;;;60.42;32.50;;;;;;;0.64;100.00;99811.16;5040742;28;20041;-82
2020/12/06 04:51:41;;;;;;;55.15;33.13;;;;;;;0.56;100.00;99817.06;5036865;28;20513;-82
2020/12/06 04:54:08;;;;;;;57.15;33.35;;;;;;;0.62;100.00;99808.63;5063652;28;20410;-82
2020/12/06 04:56:33;;;;;;;57.22;33.80;;;;;;;0.66;100.00;99798.66;5037187;28;20033;-82
2020/12/06 04:59:02;;;;;;;55.58;33.75;;;;;;;0.67;100.00;99790.63;5045107;28;20077;-82
2020/12/06 05:01:34;;;;;;;55.92;33.38;;;;;;;0.67;100.00;99790.63;5032476;28;20037;-81
2020/12/06 05:04:09;;;;;;;57.97;32.40;;;;;;;0.62;100.00;99787.50;5032190;28;20090;-82
2020/12/06 05:06:39;;;;;;;58.10;33.40;;;;;;;0.64;100.00;99796.16;5041071;28;20048;-82
2020/12/06 05:09:08;;;;;;;58.13;32.58;;;;;;;0.66;100.00;99801.28;5048348;28;20140;-82
2020/12/06 05:11:35;;;;;;;53.00;32.67;;;;;;;0.65;100.00;99792.53;5038326;28;20120;-82
2020/12/06 05:14:00;;;;;;;57.03;32.78;;;;;;;0.67;100.00;99797.72;5038681;28;20048;-82
2020/12/06 05:16:27;;;;;;;56.08;32.72;;;;;;;0.70;100.00;99794.81;5041927;28;20036;-82
2020/12/06 05:18:53;;;;;;;56.10;31.77;;;;;;;0.67;100.00;99801.19;5046511;28;20045;-82
2020/12/06 05:21:18;;;;;;;56.72;31.58;;;;;;;0.65;100.00;99800.47;5058985;28;20048;-82
2020/12/06 05:23:45;;;;;;;53.05;31.90;;;;;;;0.73;100.00;99799.84;5030493;28;20135;-82
2020/12/06 05:26:11;;;;;;;56.00;32.97;;;;;;;0.76;100.00;99804.03;5047364;28;20036;-82
2020/12/06 05:28:37;;;;;;;56.65;32.80;;;;;;;0.72;100.00;99802.59;5047106;28;20039;-82
2020/12/06 05:31:03;;;;;;;56.25;32.38;;;;;;;0.75;100.00;99803.22;5039716;28;20151;-82
2020/12/06 05:33:29;;;;;;;57.97;33.10;;;;;;;0.79;100.00;99803.78;5030204;28;20041;-82
2020/12/06 05:36:00;;;;;;;60.47;33.53;;;;;;;0.79;100.00;99801.16;5048860;28;20033;-82
2020/12/06 05:38:25;;;;;;;52.22;32.50;;;;;;;0.81;100.00;99807.97;5045618;28;20449;-82
2020/12/06 05:40:54;;;;;;;51.08;32.28;;;;;;;0.84;100.00;99798.97;5048426;28;20044;-82
2020/12/06 05:43:26;;;;;;;52.28;31.23;;;;;;;0.85;100.00;99796.19;5062626;28;20041;-82
2020/12/06 05:46:02;;;;;;;52.15;33.00;;;;;;;0.86;100.00;99795.25;5040278;28;20033;-82
2020/12/06 05:48:28;;;;;;;52.55;31.73;;;;;;;0.88;100.00;99789.81;5022192;28;20033;-83
2020/12/06 05:50:53;;;;;;;59.85;34.40;;;;;;;0.88;100.00;99793.28;5014853;28;20041;-83
2020/12/06 05:53:19;;;;;;;53.72;33.58;;;;;;;0.91;100.00;99802.78;5023057;28;20594;-83
2020/12/06 05:55:46;;;;;;;53.58;32.50;;;;;;;0.94;100.00;99788.47;5044606;28;20573;-83
2020/12/06 05:58:15;;;;;;;56.88;33.95;;;;;;;0.93;100.00;99786.81;5021361;28;20133;-83
2020/12/06 06:00:43;;;;;;;53.80;32.78;;;;;;;0.95;100.00;99792.78;5018218;28;20121;-83
2020/12/06 06:03:09;;;;;;;54.40;31.77;;;;;;;0.92;100.00;99799.16;5043728;28;20057;-82
2020/12/06 06:05:37;;;;;;;52.78;31.80;;;;;;;0.94;100.00;99794.59;5037850;28;20045;-82
2020/12/06 06:08:05;;;;;;;51.03;32.70;;;;;;;0.96;100.00;99792.66;5033671;28;20088;-82
2020/12/06 06:10:36;;;;;;;53.22;32.92;;;;;;;0.95;100.00;99784.84;5025486;28;20065;-83
2020/12/06 06:13:02;;;;;;;54.08;33.00;;;;;;;0.98;100.00;99776.66;5044906;28;20033;-83
2020/12/06 06:15:30;;;;;;;55.35;32.60;;;;;;;0.98;100.00;99776.66;5043294;28;20391;-83
2020/12/06 06:17:57;;;;;;;57.42;31.35;;;;;;;0.95;100.00;99783.06;5041837;28;20051;-83
2020/12/06 06:20:25;;;;;;;53.38;32.00;;;;;;;0.93;100.00;99789.44;5038587;28;20087;-83
2020/12/06 06:22:51;;;;;;;56.25;33.45;;;;;;;0.93;100.00;99787.63;5023161;28;20201;-83
2020/12/06 06:25:17;;;;;;;57.80;33.20;;;;;;;0.93;100.00;99794.72;5044843;28;20033;-83
2020/12/06 06:27:43;;;;;;;58.85;35.33;;;;;;;0.95;100.00;99793.66;5046561;28;20055;-83
2020/12/06 06:30:11;;;;;;;55.15;33.03;;;;;;;0.92;100.00;99788.59;5040681;28;20044;-83
2020/12/06 06:32:39;;;;;;;58.17;33.85;;;;;;;0.95;100.00;99784.84;5028844;28;20033;-83
2020/12/06 06:35:07;;;;;;;54.33;31.70;;;;;;;0.93;100.00;99781.53;5046417;28;20041;-83
2020/12/06 06:37:34;;;;;;;55.00;33.10;;;;;;;0.96;100.00;99778.63;5045132;28;20048;-83
2020/12/06 06:40:03;;;;;;;55.80;32.33;;;;;;;0.95;100.00;99785.72;5055731;28;20064;-83
2020/12/06 06:42:29;;;;;;;55.53;34.03;;;;;;;0.97;100.00;99781.13;5032880;28;20064;-82
2020/12/06 06:45:11;;;;;;;55.67;34.22;;;;;;;1.02;100.00;99778.09;5048240;28;20395;-83
2020/12/06 06:47:41;;;;;;;59.38;34.42;;;;;;;1.03;100.00;99777.13;5036056;28;20029;-84
2020/12/06 06:50:08;;;;;;;56.05;34.97;;;;;;;1.05;100.00;99778.69;5023219;28;20040;-83
2020/12/06 06:52:39;;;;;;;59.67;34.78;;;;;;;1.05;100.00;99783.97;5043526;28;20535;-84
2020/12/06 06:55:05;;;;;;;57.83;33.30;;;;;;;1.03;100.00;99785.06;5046372;28;20049;-83
2020/12/06 06:57:31;;;;;;;56.92;33.50;;;;;;;1.05;100.00;99791.91;5045298;28;20047;-83
2020/12/06 06:59:59;;;;;;;57.40;34.78;;;;;;;1.08;100.00;99780.25;5046882;28;20041;-83
2020/12/06 07:02:26;;;;;;;56.88;34.50;;;;;;;1.09;100.00;99785.41;5047678;28;20065;-82
2020/12/06 07:04:52;;;;;;;57.83;33.97;;;;;;;1.11;100.00;99788.75;5037510;28;20060;-82
2020/12/06 07:07:37;;;;;;;54.65;34.63;;;;;;;1.17;100.00;99775.97;5034577;28;20030;-82
2020/12/06 07:10:04;;;;;;;63.50;36.10;;;;;;;1.19;100.00;99779.34;5041518;28;20073;-83
2020/12/06 07:12:55;;;;;;;54.63;32.63;;;;;;;1.18;100.00;99780.28;5039130;28;20056;-83
2020/12/06 07:15:23;;;;;;;58.92;34.40;;;;;;;1.21;100.00;99783.53;5030872;28;20048;-82
2020/12/06 07:17:50;;;;;;;59.00;33.08;;;;;;;1.22;100.00;99773.81;5045885;28;20059;-83
2020/12/06 07:20:18;;;;;;;58.60;32.42;;;;;;;1.21;100.00;99774.75;5047154;28;20044;-83
2020/12/06 07:22:46;;;;;;;53.63;33.53;;;;;;;1.24;100.00;99778.00;5010146;28;20044;-83
2020/12/06 07:25:12;;;;;;;57.75;34.63;;;;;;;1.29;100.00;99785.50;5027736;28;20038;-82
2020/12/06 07:27:38;;;;;;;55.35;33.55;;;;;;;1.33;100.00;99786.94;5038453;28;20128;-82
2020/12/06 07:30:06;;;;;;;53.20;32.60;;;;;;;1.35;100.00;99764.72;5046247;28;20132;-82
2020/12/06 07:32:32;;;;;;;52.67;31.52;;;;;;;1.35;100.00;99763.84;5045986;28;20083;-83
2020/12/06 07:34:58;;;;;;;56.45;33.55;;;;;;;1.36;100.00;99768.19;5044347;28;20056;-82
2020/12/06 07:37:23;;;;;;;50.20;31.08;;;;;;;1.38;100.00;99758.31;5042038;28;20134;-81
2020/12/06 07:39:50;;;;;;;53.00;32.05;;;;;;;1.37;100.00;99769.84;5028917;28;20045;-82
2020/12/06 07:42:25;;;;;;;53.55;31.90;;;;;;;1.38;100.00;99771.50;5029332;28;20128;-81
2020/12/06 07:44:54;;;;;;;58.35;33.10;;;;;;;1.41;100.00;99767.78;5038325;28;20495;-82
2020/12/06 07:47:21;;;;;;;56.47;33.53;;;;;;;1.40;100.00;99768.75;5022779;28;20049;-82
2020/12/06 07:49:49;;;;;;;56.58;34.75;;;;;;;1.41;100.00;99768.63;5020702;28;20046;-81
2020/12/06 07:52:20;;;;;;;54.30;33.40;;;;;;;1.43;100.00;99771.13;5031171;28;20029;-82
2020/12/06 07:54:54;;;;;;;56.78;33.65;;;;;;;1.44;100.00;99778.09;5046267;28;20037;-82
2020/12/06 07:57:38;;;;;;;61.08;36.80;;;;;;;1.45;100.00;99769.22;5044749;28;20038;-81
2020/12/06 08:00:10;;;;;;;54.78;35.67;;;;;;;1.45;100.00;99767.41;5030923;28;20048;-81
2020/12/06 08:02:37;;;;;;;58.00;34.08;;;;;;;1.46;100.00;99766.41;5046975;28;20044;-82
2020/12/06 08:05:03;;;;;;;56.33;34.67;;;;;;;1.47;100.00;99767.28;5047321;28;20087;-82
2020/12/06 08:07:42;;;;;;;60.45;34.75;;;;;;;1.43;100.00;99766.69;5043648;28;20048;-82
2020/12/06 08:10:15;;;;;;;54.75;33.88;;;;;;;1.45;100.00;99775.31;5044866;28;20124;-82
2020/12/06 08:12:44;;;;;;;52.63;32.85;;;;;;;1.45;100.00;99771.84;5042707;28;20124;-82
2020/12/06 08:15:10;;;;;;;54.72;33.50;;;;;;;1.46;100.00;99771.72;5031370;28;20041;-81
2020/12/06 08:17:50;;;;;;;57.65;32.47;;;;;;;1.45;100.00;99770.03;5044591;28;20042;-81
2020/12/06 08:20:18;;;;;;;57.47;33.92;;;;;;;1.49;100.00;99776.72;5036426;28;20057;-81
2020/12/06 08:22:57;;;;;;;57.70;33.88;;;;;;;1.51;100.00;99782.72;5047319;28;22355;-81
2020/12/06 08:25:25;;;;;;;56.95;33.47;;;;;;;1.54;100.00;99779.81;5044291;28;20091;-82
2020/12/06 08:27:52;;;;;;;54.83;32.35;;;;;;;1.52;100.00;99784.41;5031738;28;20052;-81
2020/12/06 08:30:20;;;;;;;57.03;34.53;;;;;;;1.53;100.00;99791.38;5032777;28;20506;-81
2020/12/06 08:33:03;;;;;;;55.30;34.00;;;;;;;1.56;100.00;99787.66;5027728;28;20402;-81
2020/12/06 08:35:48;;;;;;;59.65;32.47;;;;;;;1.55;100.00;99791.25;5050032;28;20033;-82
2020/12/06 08:38:18;;;;;;;56.63;34.47;;;;;;;1.56;100.00;99795.56;5041578;28;20395;-82
2020/12/06 08:40:58;;;;;;;58.47;34.47;;;;;;;1.59;100.00;99779.44;5032747;28;20084;-82
2020/12/06 08:43:24;;;;;;;58.08;34.67;;;;;;;1.60;100.00;99777.63;5043537;28;20484;-82
2020/12/06 08:46:06;;;;;;;57.83;34.70;;;;;;;1.58;100.00;99783.91;5042900;28;20171;-82
2020/12/06 08:48:32;;;;;;;61.55;35.25;;;;;;;1.61;100.00;99784.59;5044814;28;20034;-82
2020/12/06 08:50:57;;;;;;;61.38;34.90;;;;;;;1.63;100.00;99803.81;5051089;28;20040;-82
2020/12/06 08:53:22;;;;;;;62.75;37.05;;;;;;;1.67;100.00;99789.34;5040164;28;20388;-82
2020/12/06 08:55:48;;;;;;;58.70;34.40;;;;;;;1.66;100.00;99793.81;5029882;28;20055;-82
2020/12/06 08:58:27;;;;;;;59.53;34.92;;;;;;;1.67;100.00;99784.06;5030139;28;20044;-82
2020/12/06 09:00:53;;;;;;;58.80;35.28;;;;;;;1.67;100.00;99779.63;5010995;28;20406;-82
2020/12/06 09:03:18;;;;;;;62.08;35.13;;;;;;;1.69;100.00;99776.84;5042818;28;20042;-82
2020/12/06 09:05:47;;;;;;;55.08;35.30;;;;;;;1.73;100.00;99767.69;5038503;28;20402;-82
2020/12/06 09:08:12;;;;;;;59.60;35.90;;;;;;;1.74;100.00;99766.72;5034826;28;20172;-82
2020/12/06 09:10:37;;;;;;;59.53;34.20;;;;;;;1.75;100.00;99760.44;5036290;28;20555;-82
2020/12/06 09:13:03;;;;;;;61.72;34.55;;;;;;;1.77;100.00;99755.84;5046624;28;20045;-82
2020/12/06 09:15:28;;;;;;;59.05;34.30;;;;;;;1.80;100.00;99753.78;5060226;28;20098;-83
2020/12/06 09:17:54;;;;;;;60.22;36.67;;;;;;;1.79;100.00;99753.94;5045416;28;20053;-82
2020/12/06 09:20:19;;;;;;;62.17;35.92;;;;;;;1.83;100.00;99747.38;5041001;28;20110;-83
2020/12/06 09:22:44;;;;;;;66.45;39.05;;;;;;;1.84;100.00;99759.63;5046072;28;20055;-83
2020/12/06 09:25:10;;;;;;;67.20;39.42;;;;;;;1.86;100.00;99768.28;5042960;28;20041;-83
2020/12/06 09:27:35;;;;;;;60.53;35.13;;;;;;;1.86;100.00;99767.44;5019392;28;20040;-82
2020/12/06 09:30:01;;;;;;;69.50;39.28;;;;;;;1.90;100.00;99774.13;5040001;28;20098;-82
2020/12/06 09:32:27;;;;;;;69.28;41.83;;;;;;;1.91;100.00;99758.13;5044656;28;20087;-83
2020/12/06 09:34:52;;;;;;;65.57;37.50;;;;;;;1.92;100.00;99757.16;5031232;28;20068;-83
2020/12/06 09:37:18;;;;;;;67.85;38.90;;;;;;;1.98;100.00;99755.78;5027835;28;20100;-83
2020/12/06 09:39:45;;;;;;;65.63;39.65;;;;;;;2.02;100.00;99750.09;5043836;28;20046;-83
2020/12/06 09:42:10;;;;;;;74.70;42.13;;;;;;;2.09;100.00;99737.16;5041381;28;20045;-82
2020/12/06 09:44:37;;;;;;;72.32;42.53;;;;;;;2.16;100.00;99742.75;5039907;28;20151;-83
2020/12/06 09:47:03;;;;;;;74.03;40.90;;;;;;;2.18;100.00;99746.09;5049346;28;20064;-82
2020/12/06 09:49:28;;;;;;;70.38;40.78;;;;;;;2.21;100.00;99749.28;5020714;28;20497;-83
2020/12/06 09:51:54;;;;;;;72.85;41.63;;;;;;;2.25;100.00;99731.34;5026132;28;20044;-83
2020/12/06 09:54:20;;;;;;;69.22;42.17;;;;;;;2.31;100.00;99733.44;5028757;28;20397;-83
2020/12/06 09:56:46;;;;;;;72.57;39.53;;;;;;;2.34;100.00;99714.63;5004181;28;20041;-83
2020/12/06 09:59:11;;;;;;;75.75;42.90;;;;;;;2.41;100.00;99706.97;5030353;28;20056;-83
2020/12/06 10:01:38;;;;;;;73.28;41.33;;;;;;;2.45;100.00;99711.88;5027726;28;20446;-83
2020/12/06 10:04:04;;;;;;;70.57;41.13;;;;;;;2.50;100.00;99716.72;5041515;28;20143;-83
2020/12/06 10:06:29;;;;;;;70.50;39.88;;;;;;;2.54;100.00;99709.38;5042927;28;20398;-83
2020/12/06 10:08:55;;;;;;;69.40;38.38;;;;;;;2.60;100.00;99706.16;5043310;28;20048;-83
2020/12/06 10:11:21;;;;;;;67.05;38.30;;;;;;;2.65;100.00;99714.53;5039509;28;20116;-83
2020/12/06 10:13:47;;;;;;;65.65;36.97;;;;;;;2.66;100.00;99703.78;5039203;28;20124;-82
2020/12/06 10:16:14;;;;;;;67.72;36.90;;;;;;;2.71;100.00;99713.97;5046216;28;20574;-83
2020/12/06 10:18:40;;;;;;;67.30;38.80;;;;;;;2.77;100.00;99704.63;5046104;28;20340;-83
2020/12/06 10:21:05;;;;;;;68.25;39.38;;;;;;;2.83;100.00;99709.34;5061050;28;20129;-83
2020/12/06 10:23:32;;;;;;;67.10;36.95;;;;;;;2.85;100.00;99718.84;5039365;28;20064;-83
2020/12/06 10:25:57;;;;;;;66.85;36.63;;;;;;;2.89;100.00;99720.22;5037834;28;20041;-83
2020/12/06 10:28:23;;;;;;;65.40;35.97;;;;;;;2.93;100.00;99713.69;5040179;28;20094;-83
2020/12/06 10:30:48;;;;;;;64.85;37.03;;;;;;;2.97;100.00;99706.28;5046656;28;20053;-84
2020/12/06 10:33:16;;;;;;;64.03;36.03;;;;;;;2.98;100.00;99702.63;5013053;28;20040;-83
2020/12/06 10:35:44;;;;;;;61.08;37.03;;;;;;;2.99;100.00;99704.28;5044515;28;20040;-83
2020/12/06 10:38:12;;;;;;;77.38;47.67;;;;;;;3.00;100.00;99713.94;5042444;28;20033;-83
2020/12/06 10:40:38;;;;;;;67.13;40.87;;;;;;;3.02;100.00;99708.47;5013028;28;20128;-83
2020/12/06 10:43:06;;;;;;;66.10;42.55;;;;;;;3.03;100.00;99705.69;5059951;28;20077;-83
2020/12/06 10:45:35;;;;;;;67.28;42.53;;;;;;;3.05;100.00;99713.50;5040734;28;20388;-83
2020/12/06 10:48:02;;;;;;;73.50;43.72;;;;;;;3.06;100.00;99712.53;5057746;28;20458;-83
2020/12/06 10:50:28;;;;;;;57.75;36.25;;;;;;;3.09;100.00;99701.63;5038626;28;20038;-83
2020/12/06 10:52:56;;;;;;;62.45;36.20;;;;;;;3.10;100.00;99700.66;5040364;28;20103;-83
2020/12/06 10:55:24;;;;;;;59.70;36.95;;;;;;;3.14;100.00;99694.09;5038926;28;20039;-83
2020/12/06 10:57:51;;;;;;;64.07;37.92;;;;;;;3.16;100.00;99689.47;5032981;28;20458;-83
2020/12/06 11:00:17;;;;;;;66.05;39.75;;;;;;;3.14;100.00;99686.16;5039582;28;20053;-83
2020/12/06 11:02:42;;;;;;;94.88;59.67;;;;;;;3.13;100.00;99690.59;5044607;28;20045;-84
2020/12/06 11:05:08;;;;;;;106.30;67.72;;;;;;;3.13;100.00;99695.88;5038997;28;20408;-83
2020/12/06 11:07:45;;;;;;;72.32;43.22;;;;;;;3.15;100.00;99707.19;5039395;28;20430;-83
2020/12/06 11:10:12;;;;;;;63.70;38.33;;;;;;;3.18;100.00;99706.06;5041837;28;20044;-83
2020/12/06 11:12:38;;;;;;;66.32;37.65;;;;;;;3.16;100.00;99697.41;5037653;28;20056;-83
2020/12/06 11:15:03;;;;;;;62.97;37.33;;;;;;;3.16;100.00;99689.47;5027485;28;20045;-83
2020/12/06 11:17:30;;;;;;;59.67;35.10;;;;;;;3.18;100.00;99690.16;5039511;28;20041;-83